createdAt,value
2023-03-30T00:02:10.728Z,6.77
2023-03-30T00:07:31.550Z,6.93
2023-03-30T00:12:52.917Z,7.00
2023-03-30T00:18:14.519Z,7.01
2023-03-30T00:23:35.572Z,7.05
2023-03-30T00:28:56.132Z,7.10
2023-03-30T00:34:16.993Z,6.98
2023-03-30T00:39:37.565Z,6.97
2023-03-30T00:45:21.566Z,7.03
2023-03-30T00:50:50.846Z,6.84
2023-03-30T00:56:14.904Z,6.73
2023-03-30T01:01:39.583Z,6.66
2023-03-30T01:07:01.178Z,6.64
2023-03-30T01:12:21.889Z,6.89
2023-03-30T01:18:24.186Z,6.84
2023-03-30T01:24:07.822Z,6.92
2023-03-30T01:30:08.491Z,6.89
2023-03-30T01:35:32.312Z,6.90
2023-03-30T01:41:09.846Z,6.70
2023-03-30T01:46:40.400Z,6.58
2023-03-30T01:52:11.076Z,6.55
2023-03-30T01:57:36.049Z,6.64
2023-03-30T02:03:05.668Z,6.59
2023-03-30T02:08:31.259Z,6.51
2023-03-30T02:13:55.242Z,6.50
2023-03-30T02:19:17.113Z,6.52
2023-03-30T02:24:38.176Z,6.49
2023-03-30T02:29:59.034Z,6.51
2023-03-30T02:35:38.969Z,6.51
2023-03-30T02:41:26.497Z,6.60
2023-03-30T02:46:59.952Z,6.48
2023-03-30T02:52:36.975Z,6.39
2023-03-30T02:58:23.766Z,6.34
2023-03-30T03:03:59.403Z,6.31
2023-03-30T03:09:26.083Z,6.36
2023-03-30T03:14:46.979Z,6.36
2023-03-30T03:20:10.690Z,6.39
2023-03-30T03:25:31.689Z,6.42
2023-03-30T03:30:58.445Z,6.41
2023-03-30T03:36:19.624Z,6.34
2023-03-30T03:41:44.862Z,6.30
2023-03-30T03:47:05.493Z,6.29
2023-03-30T03:52:26.686Z,6.30
2023-03-30T03:57:47.316Z,6.28
2023-03-30T04:03:09.220Z,6.24
2023-03-30T04:08:30.523Z,6.27
2023-03-30T04:13:59.470Z,6.30
2023-03-30T04:19:42.857Z,6.25
2023-03-30T04:25:25.968Z,6.25
2023-03-30T04:31:22.896Z,6.34
2023-03-30T04:37:03.946Z,6.36
2023-03-30T04:42:30.801Z,6.35
2023-03-30T04:48:13.551Z,6.37
2023-03-30T04:54:12.492Z,6.30
2023-03-30T05:00:12.335Z,6.39
2023-03-30T05:05:56.115Z,6.45
2023-03-30T05:11:35.810Z,6.46
2023-03-30T05:17:19.721Z,6.39
2023-03-30T05:23:07.988Z,6.43
2023-03-30T05:28:48.867Z,6.30
2023-03-30T05:34:18.969Z,6.26
2023-03-30T05:39:56.103Z,6.39
2023-03-30T05:45:35.976Z,6.34
2023-03-30T05:51:15.983Z,6.37
2023-03-30T05:56:54.182Z,6.59
2023-03-30T06:02:35.587Z,6.77
2023-03-30T06:08:01.046Z,6.94
2023-03-30T06:13:22.412Z,7.14
2023-03-30T06:18:46.959Z,7.24
2023-03-30T06:24:09.327Z,7.27
2023-03-30T06:29:32.901Z,7.34
2023-03-30T06:34:54.111Z,7.43
2023-03-30T06:40:19.171Z,7.42
2023-03-30T06:45:44.310Z,7.39
2023-03-30T06:51:06.751Z,7.27
2023-03-30T06:56:28.068Z,7.30
2023-03-30T07:02:18.047Z,7.36
2023-03-30T07:07:59.682Z,7.41
2023-03-30T07:13:21.318Z,7.59
2023-03-30T07:18:43.584Z,7.89
2023-03-30T07:24:04.476Z,8.18
2023-03-30T07:29:29.648Z,8.44
2023-03-30T07:34:51.330Z,8.67
2023-03-30T07:40:13.111Z,8.80
2023-03-30T07:45:36.098Z,8.87
2023-03-30T07:51:06.893Z,8.95
2023-03-30T07:56:33.552Z,9.05
2023-03-30T08:01:56.326Z,9.10
2023-03-30T08:07:39.833Z,9.10
2023-03-30T08:13:12.612Z,9.11
2023-03-30T08:18:33.821Z,9.10
2023-03-30T08:23:57.978Z,9.12
2023-03-30T08:29:19.405Z,9.18
2023-03-30T08:34:40.824Z,9.27
2023-03-30T08:40:01.979Z,9.26
2023-03-30T08:45:23.113Z,9.25
2023-03-30T08:51:07.175Z,9.30
2023-03-30T08:57:03.460Z,9.35
2023-03-30T09:02:31.144Z,9.43
2023-03-30T09:08:06.425Z,9.45
2023-03-30T09:13:36.456Z,9.44
2023-03-30T09:19:01.688Z,9.38
2023-03-30T09:24:26.349Z,9.34
2023-03-30T09:29:49.246Z,9.31
2023-03-30T09:35:13.369Z,9.29
2023-03-30T09:40:47.521Z,9.26
2023-03-30T09:46:09.447Z,9.19
2023-03-30T09:51:31.390Z,9.10
2023-03-30T09:56:54.573Z,9.10
2023-03-30T10:02:18.139Z,9.21
2023-03-30T10:07:41.999Z,9.30
2023-03-30T10:13:12.257Z,9.38
2023-03-30T10:18:45.062Z,9.37
2023-03-30T10:24:22.307Z,9.41
2023-03-30T10:29:50.312Z,9.38
2023-03-30T10:35:11.443Z,9.41
2023-03-30T10:40:39.202Z,9.43
2023-03-30T10:46:27.851Z,9.53
2023-03-30T10:52:01.150Z,9.54
2023-03-30T10:57:32.531Z,9.49
2023-03-30T11:03:12.845Z,9.77
2023-03-30T11:08:43.131Z,9.80
2023-03-30T11:14:12.646Z,9.75
2023-03-30T11:19:42.528Z,9.73
2023-03-30T11:25:16.691Z,9.82
2023-03-30T11:30:39.258Z,9.76
2023-03-30T11:36:23.653Z,9.74
2023-03-30T11:42:28.769Z,9.71
2023-03-30T11:48:27.121Z,9.85
2023-03-30T11:54:21.959Z,9.89
2023-03-30T11:59:56.397Z,9.97
2023-03-30T12:05:27.995Z,9.99
2023-03-30T12:10:54.654Z,10.02
2023-03-30T12:16:29.148Z,10.06
2023-03-30T12:22:04.608Z,10.01
2023-03-30T12:27:29.119Z,10.02
2023-03-30T12:33:11.546Z,10.09
2023-03-30T12:38:43.613Z,10.16
2023-03-30T12:44:23.178Z,10.18
2023-03-30T12:50:06.811Z,10.24
2023-03-30T12:55:27.509Z,10.48
2023-03-30T13:01:01.206Z,10.65
2023-03-30T13:06:24.244Z,10.74
2023-03-30T13:11:56.981Z,10.78
2023-03-30T13:17:22.229Z,10.80
2023-03-30T13:22:59.491Z,10.81
2023-03-30T13:28:35.726Z,10.83
2023-03-30T13:34:23.385Z,10.87
2023-03-30T13:39:55.772Z,10.89
2023-03-30T13:45:43.224Z,10.96
2023-03-30T13:51:04.745Z,11.02
2023-03-30T13:56:27.408Z,11.09
2023-03-30T14:01:57.361Z,11.08
2023-03-30T14:07:19.867Z,11.05
2023-03-30T14:12:41.758Z,11.05
2023-03-30T14:18:05.287Z,11.06
2023-03-30T14:23:38.109Z,11.08
2023-03-30T14:29:03.371Z,11.05
2023-03-30T14:34:28.187Z,11.06
2023-03-30T14:39:55.491Z,11.01
2023-03-30T14:45:18.928Z,10.93
2023-03-30T14:50:40.014Z,10.90
2023-03-30T14:56:01.487Z,10.89
2023-03-30T15:01:31.047Z,10.95
2023-03-30T15:06:53.520Z,10.97
2023-03-30T15:12:29.808Z,10.95
2023-03-30T15:17:51.491Z,11.00
2023-03-30T15:23:13.942Z,11.15
2023-03-30T15:28:44.320Z,11.23
2023-03-30T15:34:14.300Z,11.51
2023-03-30T15:39:36.374Z,11.54
2023-03-30T15:45:09.792Z,11.52
2023-03-30T15:50:30.614Z,11.55
2023-03-30T15:55:52.192Z,11.55
2023-03-30T16:01:16.827Z,11.54
2023-03-30T16:06:37.744Z,11.58
2023-03-30T16:11:58.514Z,11.61
2023-03-30T16:17:19.638Z,11.61
2023-03-30T16:22:40.633Z,11.61
2023-03-30T16:28:01.629Z,11.57
2023-03-30T16:33:22.272Z,11.52
2023-03-30T16:38:43.494Z,11.53
2023-03-30T16:44:04.106Z,11.45
2023-03-30T16:49:26.232Z,11.41
2023-03-30T16:54:47.138Z,11.44
2023-03-30T17:00:15.355Z,11.41
2023-03-30T17:05:36.885Z,11.39
2023-03-30T17:11:01.445Z,11.41
2023-03-30T17:16:25.175Z,11.36
2023-03-30T17:21:46.297Z,11.29
2023-03-30T17:27:07.013Z,11.24
2023-03-30T17:32:27.814Z,11.20
2023-03-30T17:37:49.999Z,11.08
2023-03-30T17:43:11.276Z,11.06
2023-03-30T17:48:32.265Z,11.04
2023-03-30T17:53:53.335Z,10.96
2023-03-30T17:59:14.106Z,10.86
2023-03-30T18:04:35.235Z,10.86
2023-03-30T18:09:56.245Z,10.74
2023-03-30T18:15:19.847Z,10.12
2023-03-30T18:20:43.965Z,9.79
2023-03-30T18:26:10.285Z,9.28
2023-03-30T18:31:32.316Z,9.03
2023-03-30T18:36:53.207Z,8.87
2023-03-30T18:42:13.849Z,8.82
2023-03-30T18:47:34.559Z,8.81
2023-03-30T18:52:55.355Z,8.88
2023-03-30T18:58:21.187Z,8.93
2023-03-30T19:03:42.850Z,8.90
2023-03-30T19:09:03.582Z,8.92
2023-03-30T19:14:24.094Z,8.87
2023-03-30T19:19:44.867Z,8.79
2023-03-30T19:25:06.405Z,8.79
2023-03-30T19:30:27.518Z,8.62
2023-03-30T19:35:48.660Z,8.47
2023-03-30T19:41:09.542Z,8.54
2023-03-30T19:46:30.693Z,8.51
2023-03-30T19:51:51.480Z,8.61
2023-03-30T19:57:12.731Z,8.69
2023-03-30T20:02:33.675Z,8.85
2023-03-30T20:07:54.381Z,8.78
2023-03-30T20:13:17.025Z,8.66
2023-03-30T20:18:40.293Z,8.67
2023-03-30T20:24:01.010Z,8.59
2023-03-30T20:29:21.619Z,8.51
2023-03-30T20:34:42.581Z,8.50
2023-03-30T20:40:09.980Z,8.38
2023-03-30T20:45:31.780Z,8.27
2023-03-30T20:50:56.295Z,8.19
2023-03-30T20:56:17.806Z,8.31
2023-03-30T21:01:41.321Z,8.36
2023-03-30T21:07:02.364Z,8.34
2023-03-30T21:12:23.125Z,8.28
2023-03-30T21:17:43.889Z,8.28
2023-03-30T21:23:04.581Z,8.27
2023-03-30T21:28:29.630Z,8.25
2023-03-30T21:33:50.683Z,8.26
2023-03-30T21:39:11.633Z,8.27
2023-03-30T21:44:36.387Z,8.35
2023-03-30T21:49:57.396Z,8.38
2023-03-30T21:55:18.164Z,8.31
2023-03-30T22:00:38.823Z,8.34
2023-03-30T22:06:01.883Z,8.36
2023-03-30T22:11:25.451Z,8.38
2023-03-30T22:16:46.922Z,8.31
2023-03-30T22:22:07.992Z,8.33
2023-03-30T22:27:28.682Z,8.28
2023-03-30T22:32:49.480Z,8.27
2023-03-30T22:38:11.362Z,8.22
2023-03-30T22:43:32.801Z,8.21
2023-03-30T22:48:55.703Z,8.17
2023-03-30T22:54:18.258Z,8.19
2023-03-30T22:59:39.098Z,8.09
2023-03-30T23:05:01.498Z,8.06
2023-03-30T23:10:25.456Z,8.13
2023-03-30T23:15:48.570Z,8.16
2023-03-30T23:21:11.247Z,8.14
2023-03-30T23:26:32.416Z,8.15
2023-03-30T23:31:53.366Z,8.11
2023-03-30T23:37:14.081Z,8.18
2023-03-30T23:42:34.829Z,8.24
2023-03-30T23:47:55.853Z,8.23
2023-03-30T23:53:16.559Z,8.18
2023-03-30T23:58:37.221Z,8.21
